Time;durP1;ratioP1;P1;durP2;ratioP2;P2;SDS_P1;SDS_P2;PMS_P1;PMS_P2;Temp;Humidity;BMP_temperature;BMP_pressure;BME280_temperature;BME280_humidity;BME280_pressure;Samples;Min_cycle;Max_cycle;Signal;HPM_P1;HPM_P2
2021/12/27 00:00:23;;;;;;;29.10;16.02;;;8.60;89.20;;;;;;4956161;28;20293;-91
2021/12/27 00:02:51;;;;;;;28.63;15.20;;;8.60;89.10;;;;;;4954991;28;20578;-91
2021/12/27 00:05:17;;;;;;;28.30;16.08;;;8.60;89.10;;;;;;4955797;29;20233;-92
2021/12/27 00:07:48;;;;;;;26.90;15.20;;;8.60;89.30;;;;;;4954728;28;20184;-92
2021/12/27 00:10:13;;;;;;;28.58;15.30;;;8.50;89.40;;;;;;4955501;28;20206;-91
2021/12/27 00:12:41;;;;;;;29.10;15.80;;;8.60;89.40;;;;;;4955206;28;20267;-91
2021/12/27 00:15:07;;;;;;;26.27;16.40;;;8.50;89.40;;;;;;4954934;28;20541;-91
2021/12/27 00:17:33;;;;;;;25.20;14.82;;;8.60;89.60;;;;;;4954852;28;20211;-92
2021/12/27 00:19:59;;;;;;;27.23;13.77;;;8.60;89.70;;;;;;4955059;28;20200;-91
2021/12/27 00:22:25;;;;;;;22.23;14.87;;;8.60;89.80;;;;;;4954759;28;20205;-92
2021/12/27 00:24:51;;;;;;;23.97;15.90;;;8.50;90.00;;;;;;4955205;28;20192;-93
2021/12/27 00:27:18;;;;;;;26.27;15.40;;;8.50;90.30;;;;;;4954594;28;20188;-92
2021/12/27 00:29:45;;;;;;;23.45;15.05;;;8.40;90.30;;;;;;4954391;28;20554;-91
2021/12/27 00:32:11;;;;;;;28.77;16.00;;;8.40;90.70;;;;;;4955060;28;20180;-91
2021/12/27 00:34:37;;;;;;;24.63;14.77;;;8.40;90.90;;;;;;4954199;28;20235;-91
2021/12/27 00:37:04;;;;;;;31.13;14.60;;;8.60;91.10;;;;;;4955045;28;20268;-92
2021/12/27 00:39:30;;;;;;;29.10;14.75;;;8.50;91.10;;;;;;4954762;28;20479;-91
2021/12/27 00:41:56;;;;;;;29.50;15.13;;;8.40;91.10;;;;;;4954708;28;20672;-91
2021/12/27 00:44:22;;;;;;;28.80;15.20;;;8.40;91.20;;;;;;4954729;29;20257;-91
2021/12/27 00:46:47;;;;;;;23.57;14.77;;;8.50;91.40;;;;;;4945487;28;20586;-91
2021/12/27 00:49:16;;;;;;;28.83;14.87;;;8.50;91.50;;;;;;4934775;29;20264;-92
2021/12/27 00:51:42;;;;;;;27.00;14.25;;;8.50;91.50;;;;;;4934779;29;20191;-91
2021/12/27 00:54:07;;;;;;;25.30;14.57;;;8.50;91.50;;;;;;4934361;29;20524;-91
2021/12/27 00:56:33;;;;;;;30.30;16.37;;;8.60;91.40;;;;;;4941306;29;20199;-92
2021/12/27 00:58:59;;;;;;;27.93;16.47;;;8.70;91.30;;;;;;4940052;28;20443;-92
2021/12/27 01:01:32;;;;;;;28.33;16.02;;;8.70;91.20;;;;;;4938162;29;20223;-91
2021/12/27 01:03:59;;;;;;;27.55;15.10;;;8.70;91.10;;;;;;4938702;29;20173;-92
2021/12/27 01:06:25;;;;;;;29.25;16.52;;;8.70;90.90;;;;;;4938908;29;20214;-92
2021/12/27 01:08:52;;;;;;;26.83;17.38;;;8.60;91.30;;;;;;4938447;29;20185;-91
2021/12/27 01:11:35;;;;;;;22.40;14.35;;;8.60;90.70;;;;;;4940604;29;20207;-92
2021/12/27 01:14:09;;;;;;;29.00;16.42;;;8.60;90.80;;;;;;4940951;29;20173;-91
2021/12/27 01:16:34;;;;;;;28.88;15.50;;;8.80;91.70;;;;;;4946991;29;20168;-92
2021/12/27 01:19:00;;;;;;;25.83;15.20;;;8.80;90.90;;;;;;4950869;29;20669;-92
2021/12/27 01:21:27;;;;;;;28.80;16.73;;;8.80;90.90;;;;;;4944246;29;20213;-91
2021/12/27 01:23:55;;;;;;;31.48;15.13;;;8.80;90.80;;;;;;4937873;29;20922;-91
2021/12/27 01:26:21;;;;;;;25.80;14.35;;;8.80;90.70;;;;;;4937879;29;20189;-92
2021/12/27 01:28:47;;;;;;;23.50;14.55;;;8.90;90.70;;;;;;4949620;29;20263;-91
2021/12/27 01:31:14;;;;;;;25.13;14.23;;;8.90;90.70;;;;;;4957171;28;20605;-91
2021/12/27 01:33:40;;;;;;;27.00;15.82;;;8.90;90.70;;;;;;4951010;28;20174;-91
2021/12/27 01:36:07;;;;;;;24.63;14.93;;;9.00;90.60;;;;;;4938513;29;20284;-91
2021/12/27 01:38:37;;;;;;;29.48;16.13;;;9.00;90.40;;;;;;4952854;29;20196;-91
2021/12/27 01:41:05;;;;;;;27.65;14.60;;;9.00;90.10;;;;;;4969378;28;20213;-93
2021/12/27 01:43:33;;;;;;;27.05;15.73;;;9.00;89.90;;;;;;4944906;28;20275;-92
2021/12/27 01:46:01;;;;;;;26.98;16.13;;;9.00;89.80;;;;;;4938641;29;20187;-92
2021/12/27 01:48:32;;;;;;;34.88;15.40;;;9.00;89.80;;;;;;4939012;29;20208;-92
2021/12/27 01:50:59;;;;;;;24.75;15.07;;;8.90;89.90;;;;;;4958083;29;20204;-92
2021/12/27 01:53:28;;;;;;;29.95;13.80;;;8.80;90.10;;;;;;4970971;28;20177;-92
2021/12/27 01:56:00;;;;;;;25.80;14.90;;;8.70;90.30;;;;;;4968071;29;20188;-92
2021/12/27 01:58:26;;;;;;;30.42;14.90;;;8.80;90.50;;;;;;4967185;28;20235;-93
2021/12/27 02:00:56;;;;;;;33.08;17.25;;;8.90;90.70;;;;;;4968020;28;20209;-92
2021/12/27 02:03:24;;;;;;;31.48;16.83;;;8.60;90.60;;;;;;4960053;28;20192;-93
2021/12/27 02:05:51;;;;;;;28.58;15.38;;;8.80;90.90;;;;;;4944707;28;20233;-92
2021/12/27 02:08:16;;;;;;;31.23;15.32;;;8.90;91.10;;;;;;4940107;29;20173;-93
2021/12/27 02:10:42;;;;;;;26.67;15.63;;;8.80;91.00;;;;;;4957821;28;20564;-92
2021/12/27 02:13:09;;;;;;;31.83;14.93;;;8.80;91.10;;;;;;4957621;28;20184;-94
2021/12/27 02:15:35;;;;;;;30.98;17.60;;;8.90;91.20;;;;;;4959907;28;20218;-93
2021/12/27 02:18:01;;;;;;;31.30;15.32;;;8.90;91.10;;;;;;4957815;28;20575;-93
2021/12/27 02:20:34;;;;;;;30.45;15.63;;;8.90;91.80;;;;;;4957881;28;20208;-93
2021/12/27 02:23:03;;;;;;;30.02;16.90;;;8.80;91.00;;;;;;4957355;28;20283;-92
2021/12/27 02:25:34;;;;;;;31.55;18.10;;;8.90;91.10;;;;;;4956624;28;20204;-94
2021/12/27 02:28:04;;;;;;;31.75;16.02;;;9.00;91.10;;;;;;4957377;29;20183;-92
2021/12/27 02:30:30;;;;;;;33.03;15.95;;;9.00;91.00;;;;;;4956440;28;20776;-93
2021/12/27 02:33:05;;;;;;;31.75;17.67;;;8.90;90.90;;;;;;4956410;28;20540;-93
2021/12/27 02:35:41;;;;;;;31.92;16.75;;;9.00;90.90;;;;;;4956550;28;20180;-93
2021/12/27 02:38:10;;;;;;;29.40;16.58;;;8.90;90.80;;;;;;4956253;28;20203;-92
2021/12/27 02:40:40;;;;;;;30.50;15.57;;;8.80;90.90;;;;;;4956728;28;20767;-92
2021/12/27 02:43:13;;;;;;;35.42;17.35;;;8.90;91.00;;;;;;4958022;28;20201;-91
2021/12/27 02:45:44;;;;;;;35.35;16.50;;;9.00;91.00;;;;;;4957394;29;20185;-92
2021/12/27 02:48:12;;;;;;;32.67;16.08;;;9.00;91.10;;;;;;4959280;28;20543;-91
2021/12/27 02:50:39;;;;;;;31.58;16.60;;;9.00;91.10;;;;;;4955951;29;20232;-91
2021/12/27 02:53:06;;;;;;;41.83;17.08;;;9.00;91.10;;;;;;4961019;28;20253;-93
2021/12/27 02:55:33;;;;;;;35.67;17.60;;;9.10;91.00;;;;;;4957580;28;20316;-94
2021/12/27 02:57:58;;;;;;;32.17;16.25;;;9.10;90.70;;;;;;4955918;28;20227;-93
2021/12/27 03:00:27;;;;;;;31.83;17.30;;;9.10;90.40;;;;;;4956504;28;20601;-92
2021/12/27 03:02:54;;;;;;;41.92;17.50;;;9.20;90.30;;;;;;4955594;29;20241;-92
2021/12/27 03:05:22;;;;;;;28.52;15.27;;;9.10;90.20;;;;;;4955540;28;20656;-92
2021/12/27 03:07:50;;;;;;;38.35;18.05;;;9.10;90.10;;;;;;4956175;28;20180;-92
2021/12/27 03:10:20;;;;;;;34.15;16.10;;;9.10;90.20;;;;;;4955121;29;20200;-92
2021/12/27 03:12:46;;;;;;;24.80;15.40;;;9.00;90.10;;;;;;4955759;29;20227;-92
2021/12/27 03:15:14;;;;;;;31.48;15.65;;;9.00;90.20;;;;;;4956136;28;20192;-94
2021/12/27 03:17:48;;;;;;;25.67;15.23;;;9.00;90.20;;;;;;4955776;28;20609;-93
2021/12/27 03:20:16;;;;;;;30.17;15.90;;;9.10;90.40;;;;;;4955252;28;20215;-94
2021/12/27 03:22:42;;;;;;;28.15;16.70;;;9.10;90.40;;;;;;4955723;28;20205;-94
2021/12/27 03:25:14;;;;;;;37.40;17.90;;;9.00;90.20;;;;;;4956522;28;20183;-93
2021/12/27 03:27:40;;;;;;;40.70;17.17;;;9.10;90.30;;;;;;4959696;29;20416;-94
2021/12/27 03:30:10;;;;;;;29.35;17.65;;;9.10;90.30;;;;;;4964122;29;20228;-93
2021/12/27 03:32:36;;;;;;;35.08;16.67;;;9.20;90.20;;;;;;4965571;28;20593;-93
2021/12/27 03:35:10;;;;;;;37.88;17.75;;;9.20;90.30;;;;;;4956662;28;20188;-94
2021/12/27 03:37:39;;;;;;;38.50;18.60;;;9.30;90.20;;;;;;4955229;28;20316;-94
2021/12/27 03:40:07;;;;;;;34.53;17.55;;;9.20;90.00;;;;;;4956971;28;20208;-93
2021/12/27 03:42:33;;;;;;;37.90;15.20;;;9.30;90.10;;;;;;4955948;28;20259;-93
2021/12/27 03:45:04;;;;;;;41.20;17.58;;;9.20;90.20;;;;;;4973932;28;20180;-92
2021/12/27 03:47:30;;;;;;;42.88;18.40;;;9.30;90.40;;;;;;4957111;28;20176;-91
2021/12/27 03:49:56;;;;;;;40.43;16.83;;;9.30;90.30;;;;;;4949535;28;20259;-92
2021/12/27 03:52:22;;;;;;;35.43;18.77;;;9.40;90.20;;;;;;4951823;28;20220;-92
2021/12/27 03:54:47;;;;;;;43.10;18.80;;;9.20;90.10;;;;;;4935249;29;20185;-90
2021/12/27 03:57:15;;;;;;;38.17;17.67;;;9.40;90.30;;;;;;4944918;29;20734;-90
2021/12/27 04:02:11;;;;;;;36.50;17.67;;;9.20;90.70;;;;;;4962504;28;20270;-90
2021/12/27 04:04:38;;;;;;;46.95;20.48;;;9.30;91.00;;;;;;4954798;28;20187;-92
2021/12/27 04:07:05;;;;;;;45.95;18.75;;;9.40;90.60;;;;;;4956650;28;20196;-92
2021/12/27 04:09:30;;;;;;;36.00;18.00;;;9.40;90.30;;;;;;4973163;28;20204;-92
2021/12/27 04:11:56;;;;;;;42.70;19.10;;;9.40;90.10;;;;;;4976173;28;20215;-93
2021/12/27 04:14:22;;;;;;;46.07;20.00;;;9.20;90.00;;;;;;4973920;28;20309;-94
2021/12/27 04:16:48;;;;;;;50.80;21.43;;;9.00;90.20;;;;;;4957759;28;20660;-94
2021/12/27 04:19:14;;;;;;;42.90;18.00;;;8.90;90.90;;;;;;4951115;28;20184;-94
2021/12/27 04:21:40;;;;;;;42.88;19.30;;;8.90;91.10;;;;;;4939680;29;20461;-94
2021/12/27 04:24:06;;;;;;;54.60;19.52;;;8.90;91.20;;;;;;4936017;29;20193;-94
2021/12/27 04:26:32;;;;;;;34.83;20.33;;;8.80;91.20;;;;;;4945537;29;20180;-93
2021/12/27 04:28:58;;;;;;;39.65;19.40;;;9.00;91.40;;;;;;4955532;28;20184;-93
2021/12/27 04:31:24;;;;;;;39.83;19.40;;;9.10;91.40;;;;;;4952917;28;20231;-93
2021/12/27 04:33:49;;;;;;;37.03;18.50;;;9.10;91.20;;;;;;4953394;28;20235;-93
2021/12/27 04:36:15;;;;;;;34.53;17.03;;;9.10;91.00;;;;;;4954075;28;20671;-93
2021/12/27 04:38:44;;;;;;;37.43;16.70;;;9.20;90.90;;;;;;4954663;28;20621;-92
2021/12/27 04:41:13;;;;;;;36.33;16.58;;;9.10;90.70;;;;;;4944055;28;20202;-93
2021/12/27 04:43:40;;;;;;;33.80;17.05;;;9.10;90.60;;;;;;4935446;29;20195;-93
2021/12/27 04:46:06;;;;;;;35.78;15.20;;;9.20;90.50;;;;;;4937357;29;20259;-93
2021/12/27 04:48:32;;;;;;;37.42;17.63;;;9.10;90.30;;;;;;4934902;29;20189;-93
2021/12/27 04:50:58;;;;;;;40.60;18.67;;;9.00;90.10;;;;;;4934813;29;20209;-93
2021/12/27 04:53:24;;;;;;;36.50;17.93;;;9.00;90.20;;;;;;4934590;29;20199;-93
2021/12/27 04:55:51;;;;;;;39.75;17.60;;;9.00;90.30;;;;;;4934595;29;20508;-93
2021/12/27 04:58:21;;;;;;;44.13;19.25;;;8.90;90.30;;;;;;4935896;29;20512;-93
2021/12/27 05:00:47;;;;;;;35.80;17.25;;;9.00;90.40;;;;;;4934574;29;20209;-92
2021/12/27 05:03:13;;;;;;;43.22;18.52;;;9.00;90.40;;;;;;4935420;29;20308;-94
2021/12/27 05:05:43;;;;;;;39.60;17.93;;;9.00;90.40;;;;;;4936165;29;20205;-94
2021/12/27 05:08:12;;;;;;;42.42;17.63;;;9.00;90.30;;;;;;4935588;29;20787;-94
2021/12/27 05:10:38;;;;;;;42.67;18.08;;;8.90;90.40;;;;;;4938120;29;20264;-92
2021/12/27 05:13:08;;;;;;;45.92;18.10;;;8.80;90.50;;;;;;4953588;28;20644;-92
2021/12/27 05:15:33;;;;;;;49.10;18.58;;;8.70;90.70;;;;;;4940413;28;20247;-93
2021/12/27 05:17:59;;;;;;;47.97;20.80;;;8.70;91.30;;;;;;4945206;29;20652;-92
2021/12/27 05:20:25;;;;;;;43.90;19.03;;;8.50;91.70;;;;;;4944431;28;20205;-92
2021/12/27 05:23:02;;;;;;;52.47;20.37;;;8.60;92.20;;;;;;4947359;29;20203;-93
2021/12/27 05:25:27;;;;;;;46.45;19.00;;;8.60;92.40;;;;;;4944448;28;20420;-93
2021/12/27 05:27:53;;;;;;;58.70;19.40;;;8.60;92.70;;;;;;4952788;28;20642;-92
2021/12/27 05:30:19;;;;;;;51.13;20.50;;;8.60;92.90;;;;;;4954816;28;20276;-93
2021/12/27 05:32:46;;;;;;;52.65;21.38;;;8.60;93.00;;;;;;4949671;29;20189;-92
2021/12/27 05:35:13;;;;;;;59.08;20.50;;;8.50;93.30;;;;;;4936834;29;20185;-93
2021/12/27 05:37:39;;;;;;;55.90;24.08;;;8.60;93.50;;;;;;4940278;29;20173;-92
2021/12/27 05:40:08;;;;;;;47.42;19.35;;;8.30;93.70;;;;;;4957595;28;20216;-92
2021/12/27 05:42:35;;;;;;;74.95;23.10;;;8.30;94.20;;;;;;4962716;28;20204;-93
2021/12/27 05:45:02;;;;;;;61.95;23.65;;;8.20;94.90;;;;;;4944340;29;20185;-92
2021/12/27 05:47:28;;;;;;;70.00;22.67;;;8.20;95.40;;;;;;4956297;29;20212;-92
2021/12/27 05:49:54;;;;;;;63.00;22.53;;;8.30;95.70;;;;;;4957620;28;20297;-92
2021/12/27 05:52:19;;;;;;;54.73;21.70;;;8.30;95.70;;;;;;4968259;28;20220;-92
2021/12/27 05:54:46;;;;;;;45.60;21.27;;;8.40;95.60;;;;;;4951875;28;20272;-92
2021/12/27 05:57:12;;;;;;;40.78;19.40;;;8.50;95.50;;;;;;4938526;29;20188;-92
2021/12/27 12:03:58;;;;;;;11.02;6.88;;;10.10;90.70;;;;;;4955780;29;20227;-89
2021/12/27 12:06:37;;;;;;;14.02;7.82;;;10.10;90.90;;;;;;4958147;28;20161;-89
2021/12/27 12:09:25;;;;;;;8.63;6.38;;;10.20;91.00;;;;;;4956177;28;20180;-89
2021/12/27 12:12:05;;;;;;;13.13;7.57;;;10.20;91.10;;;;;;4955963;28;20290;-89
2021/12/27 12:14:36;;;;;;;11.63;6.30;;;10.30;91.10;;;;;;4956024;28;20187;-89
2021/12/27 12:17:06;;;;;;;9.60;6.63;;;10.40;91.00;;;;;;4957452;28;20180;-87
2021/12/27 12:19:47;;;;;;;8.57;6.68;;;10.60;91.00;;;;;;4956494;28;20176;-87
2021/12/27 12:22:42;;;;;;;15.43;6.50;;;10.60;90.70;;;;;;4956951;28;20188;-87
2021/12/27 12:25:18;;;;;;;9.07;5.60;;;10.40;90.40;;;;;;4955988;28;20180;-87
2021/12/27 12:27:52;;;;;;;8.50;5.72;;;10.60;90.60;;;;;;4956533;28;20204;-87
2021/12/27 12:30:17;;;;;;;10.10;7.32;;;10.70;90.50;;;;;;4957575;28;20212;-87
2021/12/27 12:33:02;;;;;;;5.10;4.40;;;10.80;90.30;;;;;;4956359;28;20299;-88
2021/12/27 12:35:45;;;;;;;7.38;5.20;;;10.70;90.10;;;;;;4956059;28;20439;-88
2021/12/27 12:38:14;;;;;;;6.40;5.55;;;10.80;90.00;;;;;;4955891;28;20183;-89
2021/12/27 12:40:41;;;;;;;7.32;5.85;;;10.80;90.00;;;;;;4957393;28;20196;-89
2021/12/27 12:43:07;;;;;;;10.43;7.07;;;10.70;90.10;;;;;;4956397;28;20215;-88
2021/12/27 12:45:34;;;;;;;5.93;5.05;;;10.60;90.10;;;;;;4955473;28;20176;-88
2021/12/27 12:48:04;;;;;;;8.38;5.00;;;10.60;90.40;;;;;;4939988;29;20189;-88
2021/12/27 12:50:30;;;;;;;6.30;4.50;;;10.60;90.70;;;;;;4948846;29;20255;-88
2021/12/27 12:53:06;;;;;;;6.72;4.72;;;10.60;90.80;;;;;;4957660;28;20272;-88
2021/12/27 12:55:35;;;;;;;15.35;5.10;;;10.50;90.80;;;;;;4962005;29;20675;-87
2021/12/27 12:58:02;;;;;;;8.48;5.25;;;10.50;91.00;;;;;;4960041;29;20276;-88
2021/12/27 13:00:34;;;;;;;6.40;4.75;;;10.60;91.10;;;;;;4960280;28;20212;-88
2021/12/27 13:03:11;;;;;;;9.27;5.13;;;10.70;91.10;;;;;;4961469;28;20244;-88
2021/12/27 13:05:37;;;;;;;8.32;4.30;;;10.70;91.00;;;;;;4958459;29;20171;-88
2021/12/27 13:08:09;;;;;;;6.05;4.72;;;10.70;90.80;;;;;;4959206;28;20192;-88
2021/12/27 13:10:36;;;;;;;6.88;5.15;;;10.80;90.60;;;;;;4945827;29;20195;-88
2021/12/27 13:13:16;;;;;;;7.22;5.45;;;10.80;90.40;;;;;;4949153;29;20188;-88
2021/12/27 13:16:03;;;;;;;7.72;5.50;;;10.70;90.20;;;;;;4968187;29;20176;-88
2021/12/27 13:18:31;;;;;;;6.10;4.55;;;10.80;90.30;;;;;;4958983;28;20177;-88
2021/12/27 13:21:03;;;;;;;7.50;5.65;;;10.80;90.30;;;;;;4959144;28;20216;-88
2021/12/27 13:23:30;;;;;;;6.97;4.68;;;10.80;90.30;;;;;;4958664;29;20228;-88
2021/12/27 13:26:04;;;;;;;12.00;6.35;;;10.80;90.30;;;;;;4962458;29;20205;-89
2021/12/27 13:29:01;;;;;;;6.63;4.85;;;10.90;90.30;;;;;;4961518;29;20270;-88
2021/12/27 13:31:28;;;;;;;5.70;5.05;;;10.80;90.50;;;;;;4933679;29;20760;-88
2021/12/27 13:34:15;;;;;;;8.27;5.90;;;10.80;90.20;;;;;;4961711;29;20193;-89
2021/12/27 13:36:44;;;;;;;10.00;5.85;;;10.90;90.20;;;;;;4963006;28;20168;-89
2021/12/27 13:39:13;;;;;;;9.18;6.45;;;11.00;90.10;;;;;;4960605;28;20189;-88
2021/12/27 13:41:41;;;;;;;13.18;7.55;;;10.90;89.90;;;;;;4942418;29;20273;-88
2021/12/27 13:44:10;;;;;;;13.80;6.85;;;11.00;90.00;;;;;;4944028;29;20200;-88
2021/12/27 13:46:46;;;;;;;9.73;7.22;;;11.10;89.90;;;;;;4944088;29;20177;-89
2021/12/27 13:49:12;;;;;;;12.07;6.15;;;11.10;89.70;;;;;;4946175;29;20173;-87
2021/12/27 13:51:45;;;;;;;10.83;6.63;;;11.20;89.50;;;;;;4943776;29;20201;-87
2021/12/27 13:54:15;;;;;;;11.60;6.15;;;11.20;89.40;;;;;;4942564;29;20199;-87
2021/12/27 13:56:47;;;;;;;9.50;6.47;;;11.10;89.40;;;;;;4942311;29;20216;-86
2021/12/27 13:59:19;;;;;;;12.68;8.20;;;11.00;89.40;;;;;;4943059;29;20172;-87
2021/12/27 14:01:59;;;;;;;14.88;8.48;;;11.20;89.50;;;;;;4945760;29;20855;-88
2021/12/27 14:04:26;;;;;;;16.58;7.90;;;11.20;89.40;;;;;;4943014;29;20165;-87
2021/12/27 14:06:52;;;;;;;10.07;7.03;;;11.20;89.30;;;;;;4943983;29;20181;-88
2021/12/27 14:09:23;;;;;;;7.88;6.90;;;11.30;89.20;;;;;;4943543;29;20181;-88
2021/12/27 14:11:52;;;;;;;8.35;6.00;;;11.30;89.10;;;;;;4943643;29;20205;-87
2021/12/27 14:14:44;;;;;;;8.48;6.30;;;11.30;89.00;;;;;;4942476;29;20181;-87
2021/12/27 14:17:14;;;;;;;10.10;7.13;;;11.30;88.80;;;;;;4945262;29;20177;-87
2021/12/27 14:19:45;;;;;;;7.45;6.22;;;11.30;88.90;;;;;;4944996;29;20171;-87
2021/12/27 14:22:16;;;;;;;7.53;5.57;;;11.10;88.70;;;;;;4943993;29;20201;-88
2021/12/27 14:24:46;;;;;;;10.63;5.72;;;11.10;88.90;;;;;;4943478;29;20169;-89
2021/12/27 14:27:19;;;;;;;6.20;5.57;;;11.20;89.00;;;;;;4942372;29;20177;-87
2021/12/27 14:30:06;;;;;;;9.35;5.72;;;11.10;89.00;;;;;;4942102;29;20168;-88
2021/12/27 14:32:33;;;;;;;18.67;6.95;;;11.10;89.10;;;;;;4957868;28;20228;-88
2021/12/27 14:34:59;;;;;;;9.18;5.47;;;11.10;89.20;;;;;;4958556;28;20180;-88
2021/12/27 14:37:25;;;;;;;8.47;6.70;;;10.80;89.20;;;;;;4957396;28;20184;-88
2021/12/27 14:39:51;;;;;;;9.40;6.13;;;10.90;89.60;;;;;;4958085;28;20427;-89
2021/12/27 14:42:20;;;;;;;6.65;5.15;;;10.90;89.80;;;;;;4958461;29;20553;-88
2021/12/27 14:44:54;;;;;;;7.43;5.60;;;10.90;89.90;;;;;;4957437;28;20262;-89
2021/12/27 14:47:22;;;;;;;9.85;5.45;;;11.00;90.00;;;;;;4949452;29;20237;-88
2021/12/27 14:49:50;;;;;;;13.15;6.60;;;11.00;89.80;;;;;;4940340;29;20221;-88
2021/12/27 14:52:18;;;;;;;19.85;6.85;;;11.00;89.90;;;;;;4941587;29;20181;-88
2021/12/27 14:54:44;;;;;;;8.90;6.95;;;11.10;89.80;;;;;;4959866;28;20188;-87
2021/12/27 14:57:10;;;;;;;12.98;7.63;;;11.00;89.60;;;;;;4957967;29;20212;-89
2021/12/27 14:59:37;;;;;;;12.63;7.43;;;11.00;89.50;;;;;;4958777;28;20192;-88
2021/12/27 15:02:06;;;;;;;7.63;6.80;;;10.90;89.60;;;;;;4959863;28;20275;-88
2021/12/27 15:04:32;;;;;;;10.65;7.65;;;10.70;89.70;;;;;;4960194;28;20180;-89
2021/12/27 15:06:58;;;;;;;10.30;7.65;;;10.70;90.10;;;;;;4958660;28;20185;-89
2021/12/27 15:09:24;;;;;;;13.68;7.90;;;10.70;90.30;;;;;;4946693;29;20177;-89
2021/12/27 15:11:50;;;;;;;13.80;7.75;;;10.70;90.60;;;;;;4948826;29;20201;-89
2021/12/27 15:14:17;;;;;;;16.17;7.80;;;10.50;90.60;;;;;;4957009;28;20235;-89
2021/12/27 15:16:44;;;;;;;17.65;8.80;;;10.50;91.00;;;;;;4943966;28;20221;-89
2021/12/27 15:19:10;;;;;;;10.15;7.25;;;10.50;91.40;;;;;;4952093;29;20182;-89
2021/12/27 15:21:36;;;;;;;12.50;9.50;;;10.40;91.60;;;;;;4942765;29;20204;-89
2021/12/27 15:24:02;;;;;;;15.30;8.38;;;10.30;91.90;;;;;;4942295;29;20464;-89
2021/12/27 15:26:28;;;;;;;15.77;9.50;;;10.50;92.20;;;;;;4956800;28;20213;-89
2021/12/27 15:28:53;;;;;;;11.13;7.57;;;10.50;92.10;;;;;;4956838;28;20420;-88
2021/12/27 15:31:19;;;;;;;8.83;6.80;;;10.60;92.10;;;;;;4957057;28;20192;-89
2021/12/27 15:33:45;;;;;;;10.47;8.37;;;10.60;92.00;;;;;;4956355;28;20428;-89
2021/12/27 15:36:11;;;;;;;12.57;7.87;;;10.70;91.90;;;;;;4957204;28;20800;-89
2021/12/27 15:38:38;;;;;;;14.63;9.00;;;10.70;91.60;;;;;;4956996;28;20416;-89
2021/12/27 15:41:05;;;;;;;12.18;7.85;;;10.70;91.50;;;;;;4951821;29;20449;-89
2021/12/27 15:43:30;;;;;;;9.70;7.78;;;10.60;91.40;;;;;;4937791;29;20596;-89
2021/12/27 15:45:59;;;;;;;8.40;6.33;;;10.60;91.40;;;;;;4939192;29;20177;-89
2021/12/27 15:48:39;;;;;;;11.68;6.75;;;10.60;91.40;;;;;;4940471;29;20440;-90
2021/12/27 15:51:10;;;;;;;13.35;8.13;;;10.60;91.40;;;;;;4944576;29;20197;-89
2021/12/27 15:53:40;;;;;;;16.73;7.20;;;10.60;91.30;;;;;;4945600;29;20180;-88
2021/12/27 15:56:07;;;;;;;9.77;6.75;;;10.60;91.20;;;;;;4961981;28;20184;-88
2021/12/27 15:58:38;;;;;;;7.82;6.85;;;10.60;91.30;;;;;;4959062;28;20180;-89
2021/12/27 16:01:09;;;;;;;11.25;6.90;;;10.60;91.30;;;;;;4957276;28;20204;-89
2021/12/27 16:03:37;;;;;;;13.70;7.50;;;10.70;91.40;;;;;;4954144;28;20676;-88
2021/12/27 16:06:03;;;;;;;11.35;7.50;;;10.50;91.10;;;;;;4946762;28;20193;-90
2021/12/27 16:08:29;;;;;;;13.77;7.28;;;10.50;91.30;;;;;;4939063;29;20169;-89
2021/12/27 16:11:01;;;;;;;10.43;7.78;;;10.30;91.50;;;;;;4937591;29;20308;-89
2021/12/27 16:13:36;;;;;;;15.90;7.30;;;10.30;91.80;;;;;;4939125;29;20169;-91
2021/12/27 16:16:10;;;;;;;13.95;8.68;;;10.50;92.00;;;;;;4937694;29;20189;-90
2021/12/27 16:18:36;;;;;;;9.48;6.97;;;10.50;92.00;;;;;;4953657;29;20184;-90
2021/12/27 16:21:03;;;;;;;9.93;6.85;;;10.50;92.00;;;;;;4958257;28;20204;-91
2021/12/27 16:23:29;;;;;;;14.88;6.60;;;10.50;92.00;;;;;;4955650;28;20197;-91
2021/12/27 16:25:55;;;;;;;15.90;6.47;;;10.50;92.00;;;;;;4956428;28;20196;-90
2021/12/27 16:28:22;;;;;;;11.43;6.93;;;10.20;91.90;;;;;;4955900;29;20424;-91
2021/12/27 16:30:48;;;;;;;8.77;6.28;;;10.10;92.30;;;;;;4956154;29;20200;-90
2021/12/27 16:33:14;;;;;;;14.38;5.68;;;10.00;92.70;;;;;;4956110;29;20733;-91
2021/12/27 16:35:42;;;;;;;11.43;5.43;;;9.90;93.10;;;;;;4956628;29;20232;-90
2021/12/27 16:38:09;;;;;;;11.88;6.90;;;9.90;93.50;;;;;;4956026;28;20676;-91
2021/12/27 16:40:35;;;;;;;13.73;7.45;;;9.90;93.70;;;;;;4956652;28;20635;-90
2021/12/27 16:43:01;;;;;;;17.13;7.70;;;9.90;94.00;;;;;;4957042;28;20208;-89
2021/12/27 16:45:27;;;;;;;14.03;7.47;;;9.90;94.10;;;;;;4956404;29;20605;-91
2021/12/27 16:47:54;;;;;;;17.73;7.90;;;9.80;94.50;;;;;;4948710;29;20417;-91
2021/12/27 16:50:25;;;;;;;11.68;8.35;;;9.80;94.60;;;;;;4937273;29;20457;-90
2021/12/27 16:52:52;;;;;;;11.20;7.30;;;9.80;94.80;;;;;;4945404;29;20181;-90
2021/12/27 16:55:19;;;;;;;14.48;8.13;;;9.80;95.00;;;;;;4958216;28;20184;-90
2021/12/27 16:57:47;;;;;;;14.45;7.88;;;9.70;95.10;;;;;;4959982;28;20231;-87
2021/12/27 17:00:16;;;;;;;12.48;6.63;;;9.80;95.40;;;;;;4959422;29;20200;-89
2021/12/27 17:02:43;;;;;;;12.18;7.78;;;9.70;95.60;;;;;;4957121;28;20212;-89
2021/12/27 17:05:09;;;;;;;15.52;8.20;;;9.80;95.70;;;;;;4949723;28;20188;-89
2021/12/27 17:07:36;;;;;;;15.48;7.55;;;9.80;95.70;;;;;;4939580;29;20580;-90
2021/12/27 17:10:03;;;;;;;12.38;7.50;;;9.70;95.90;;;;;;4949660;29;20177;-90
2021/12/27 17:12:29;;;;;;;9.25;7.72;;;9.90;96.00;;;;;;4947297;29;20196;-90
2021/12/27 17:14:54;;;;;;;10.20;7.40;;;9.90;95.90;;;;;;4938140;29;20657;-90
2021/12/27 17:17:21;;;;;;;11.77;8.27;;;9.80;95.70;;;;;;4940024;29;20185;-89
2021/12/27 17:19:51;;;;;;;18.42;8.45;;;9.90;95.80;;;;;;4939112;29;20308;-90
2021/12/27 17:22:51;;;;;;;12.25;9.40;;;9.80;95.70;;;;;;4937093;29;20296;-90
2021/12/27 17:25:18;;;;;;;11.25;7.72;;;9.80;95.80;;;;;;4937491;29;20177;-89
2021/12/27 17:27:44;;;;;;;16.52;8.23;;;9.80;95.70;;;;;;4951323;29;20184;-89
2021/12/27 17:30:10;;;;;;;13.00;8.30;;;9.80;95.80;;;;;;4957082;28;20739;-88
2021/12/27 17:32:36;;;;;;;12.23;8.20;;;9.70;95.90;;;;;;4955379;28;20189;-88
2021/12/27 17:35:04;;;;;;;15.90;9.60;;;9.60;96.10;;;;;;4938895;28;20188;-89
2021/12/27 17:37:29;;;;;;;17.92;10.00;;;9.60;96.40;;;;;;4947931;28;20432;-90
2021/12/27 17:39:56;;;;;;;14.50;8.70;;;9.60;96.80;;;;;;4959036;29;20649;-89
2021/12/27 17:42:21;;;;;;;19.05;10.25;;;9.70;96.80;;;;;;4963293;28;20676;-89
2021/12/27 17:44:47;;;;;;;13.67;10.27;;;9.60;96.80;;;;;;4962583;29;20200;-89
2021/12/27 17:47:14;;;;;;;14.77;9.23;;;9.50;97.10;;;;;;4956603;28;20465;-89
2021/12/27 17:49:42;;;;;;;14.57;10.02;;;9.70;97.30;;;;;;4971572;28;20427;-90
2021/12/27 17:52:08;;;;;;;16.02;9.75;;;9.70;97.30;;;;;;4966007;28;20271;-87
2021/12/27 17:54:34;;;;;;;13.33;10.17;;;9.70;97.30;;;;;;4965235;28;20208;-88
2021/12/27 17:57:03;;;;;;;12.70;9.20;;;9.90;97.20;;;;;;4961966;28;20424;-88
2021/12/27 17:59:30;;;;;;;18.20;10.30;;;9.90;97.00;;;;;;4960518;28;20557;-88
2021/12/27 18:01:56;;;;;;;18.45;12.00;;;9.90;96.60;;;;;;4983095;23;20302;-89
2021/12/27 18:04:28;;;;;;;18.63;10.15;;;9.80;96.20;;;;;;4976931;28;20648;-89
2021/12/27 18:06:54;;;;;;;15.13;10.75;;;9.80;96.30;;;;;;4977177;28;20191;-89
2021/12/27 18:09:20;;;;;;;21.15;10.57;;;9.70;96.40;;;;;;4976946;28;20180;-89
2021/12/27 18:11:47;;;;;;;18.67;9.95;;;9.70;96.40;;;;;;4976939;28;20204;-89
2021/12/27 18:14:18;;;;;;;16.75;11.23;;;9.70;96.50;;;;;;4976117;28;20180;-89
2021/12/27 18:16:44;;;;;;;21.30;12.45;;;9.80;96.50;;;;;;4976422;28;20789;-89
2021/12/27 18:19:10;;;;;;;19.65;12.98;;;9.80;96.40;;;;;;4977489;28;20175;-89
2021/12/27 18:21:37;;;;;;;16.73;11.73;;;9.70;96.50;;;;;;4976581;28;20254;-89
2021/12/27 18:24:07;;;;;;;16.45;11.82;;;9.80;96.70;;;;;;4977794;28;20200;-89
2021/12/27 18:26:45;;;;;;;12.55;10.98;;;9.80;96.60;;;;;;4977548;28;20223;-89
2021/12/27 18:29:11;;;;;;;15.68;10.13;;;9.80;96.60;;;;;;4987529;28;20176;-90
2021/12/27 18:31:40;;;;;;;19.73;11.77;;;9.90;96.70;;;;;;4983733;28;20699;-89
2021/12/27 18:34:07;;;;;;;19.05;12.10;;;10.00;96.70;;;;;;4976098;28;20446;-89
2021/12/27 18:36:33;;;;;;;20.50;12.23;;;10.20;96.50;;;;;;4977942;28;20180;-89
2021/12/27 18:39:00;;;;;;;20.42;13.02;;;9.80;96.00;;;;;;4962849;28;20248;-89
2021/12/27 18:41:26;;;;;;;16.05;12.52;;;9.90;96.40;;;;;;4970491;29;20227;-90
2021/12/27 18:43:55;;;;;;;24.88;14.98;;;10.20;96.40;;;;;;4972028;28;20217;-89
2021/12/27 18:46:22;;;;;;;20.80;13.07;;;10.20;96.00;;;;;;4957426;29;20563;-89
2021/12/27 18:48:49;;;;;;;22.77;14.63;;;9.90;95.80;;;;;;4956804;28;20670;-87
2021/12/27 18:51:15;;;;;;;20.55;13.27;;;9.90;95.90;;;;;;4955476;28;20227;-89